Data for 09/13/2013

Time Sea-Level Adjusted Pressure Absolute Pressure Temperature Relative Humidity Dew Point   
(mb) (inHg) (mb) (inHg) (C) (F) (%) (C) (F)
00:05 1020 30.12 849 25.07 16.7 62.1 55 7.6 45.7
00:10 1020 30.12 849 25.07 16.5 61.7 55 7.5 45.6
00:15 1020 30.12 849 25.07 16.4 61.5 55 7.4 45.4
00:20 1020 30.12 849 25.07 16.5 61.7 55 7.6 45.7
00:25 1020 30.12 849 25.07 16.3 61.3 56 7.6 45.8
00:30 1020 30.12 849 25.07 15.7 60.2 58 7.6 45.7
00:35 1020 30.12 849 25.07 15.1 59.2 59 7.2 45
00:40 1020 30.12 849 25.07 15.1 59.1 59 7.3 45.1
00:45 1020 30.12 849 25.07 15.2 59.4 59 7.3 45.1
00:50 1020 30.12 849 25.07 15.1 59.1 59 7.3 45.1
00:55 1020 30.12 849 25.07 14.9 58.9 59 7.2 44.9
01:00 1020 30.12 849 25.07 14.9 58.8 59 7.1 44.8
01:05 1020 30.12 849 25.07 14.9 58.8 59 7.1 44.8
01:10 1020 30.12 849 25.07 15 58.9 63 8.2 46.7
01:15 1020 30.12 849 25.07 14.9 58.9 59 7.1 44.8
01:20 1020 30.12 849 25.07 14.7 58.4 60 7 44.6
01:25 1020 30.12 849 25.07 14.4 58 60 7 44.5
01:30 1020 30.12 849 25.07 14.1 57.5 62 7 44.6
01:35 1020 30.12 849 25.07 13.8 56.9 63 6.9 44.4
01:40 1020 30.12 849 25.07 13.7 56.6 62 6.7 44
01:45 1020 30.12 849 25.07 13.8 56.9 60 6.3 43.3
01:50 1020 30.12 849 25.07 13.9 56.9 61 6.4 43.6
01:55 1020 30.12 849 25.07 14.2 57.5 61 6.7 44
02:00 1020 30.12 849 25.07 14.1 57.4 61 6.7 44
02:05 1020 30.12 849 25.07 14.1 57.4 61 6.8 44.3
02:10 1020 30.12 849 25.07 14.3 57.7 60 6.7 44.1
02:15 1020 30.12 849 25.07 14.5 58.2 60 7 44.5
02:20 1020 30.12 849 25.07 14.6 58.2 60 6.9 44.4
02:25 1020 30.12 849 25.07 14.6 58.3 60 7 44.6
02:30 1020 30.12 849 25.07 14.3 57.8 61 7.1 44.7
02:35 1020 30.12 849 25.07 13.9 56.9 63 6.9 44.5
02:40 1020 30.12 849 25.07 13.9 57 62 6.8 44.3
02:45 1020 30.12 849 25.07 13.8 56.9 63 7 44.6
02:50 1020 30.12 849 25.07 13.6 56.4 64 7 44.5
02:55 1020 30.12 849 25.07 13.5 56.2 64 6.8 44.2
03:00 1020 30.12 849 25.07 13.5 56.3 64 6.9 44.5
03:05 1020 30.12 849 25.07 13.1 55.5 66 6.8 44.3
03:10 1020 30.12 849 25.07 12.8 55 66 6.7 44.1
03:15 1020 30.12 849 25.07 12.7 54.8 66 6.6 43.9
03:20 1020 30.12 849 25.07 12.7 54.8 66 6.6 43.9
03:25 1020 30.12 849 25.07 12.7 54.9 66 6.5 43.7
03:30 1020 30.12 849 25.07 12.7 54.9 67 6.7 44
03:35 1020 30.12 849 25.07 12.5 54.5 67 6.6 43.9
03:40 1020 30.12 849 25.07 12.1 53.8 68 6.4 43.6
03:45 1020 30.12 849 25.07 11.9 53.4 68 6.2 43.1
03:50 1020 30.12 849 25.07 12.1 53.8 67 6.2 43.1
03:55 1020 30.12 849 25.07 12.2 54 67 6.4 43.6
04:00 1020 30.12 849 25.07 11.7 53.1 69 6.4 43.5
04:05 1020 30.12 849 25.07 12 53.6 68 6.3 43.4
04:10 1020 30.12 849 25.07 12.2 54 68 6.5 43.6
04:15 1020 30.12 849 25.07 12.3 54.1 68 6.5 43.7
04:20 1020 30.12 849 25.07 12.3 54.1 68 6.5 43.7
04:25 1020 30.12 849 25.07 12.1 53.9 67 6.3 43.3
04:30 1020 30.12 849 25.07 12.4 54.3 66 6.3 43.4
04:35 1020 30.12 849 25.07 12.5 54.5 66 6.4 43.5
04:40 1019 30.09 849 25.07 12.5 54.6 66 6.4 43.5
04:45 1019 30.09 849 25.07 12.4 54.4 66 6.4 43.5
04:50 1019 30.09 849 25.07 12.2 54 67 6.4 43.5
04:55 1019 30.09 849 25.07 12 53.6 68 6.4 43.5
05:00 1019 30.09 849 25.07 11.8 53.2 69 6.3 43.4
05:05 1019 30.09 849 25.07 11.9 53.3 68 6.1 43
05:10 1019 30.09 849 25.07 11.8 53.2 69 6.3 43.3
05:15 1019 30.09 849 25.07 12 53.5 67 6.2 43.1
05:20 1019 30.09 849 25.07 11.9 53.4 68 6.3 43.3
05:25 1019 30.09 849 25.07 11.5 52.7 70 6.3 43.3
05:30 1019 30.09 849 25.07 11.5 52.7 69 6 42.9
05:35 1019 30.09 849 25.07 11.6 52.8 69 6.1 43.1
05:40 1019 30.09 849 25.07 11.4 52.6 70 6.2 43.1
05:45 1019 30.09 849 25.07 11.7 53 68 6.1 42.9
05:50 1019 30.09 849 25.07 12 53.5 67 6.2 43.1
05:55 1019 30.09 849 25.07 11.7 53.1 70 6.4 43.5
06:00 1019 30.09 849 25.07 11.7 53.1 69 6.3 43.4
06:05 1019 30.09 849 25.07 11.7 53.1 70 6.4 43.5
06:10 1019 30.09 849 25.07 11.4 52.4 72 6.4 43.6
06:15 1019 30.09 849 25.07 11.1 52.1 72 6.3 43.4
06:20 1019 30.09 849 25.07 11.1 52.1 72 6.2 43.2
06:25 1019 30.09 849 25.07 11.3 52.3 71 6.3 43.3
06:30 1019 30.09 849 25.07 11.4 52.5 69 5.9 42.6
06:35 1019 30.09 848 25.04 11.9 53.3 68 6.1 43
06:40 1019 30.09 848 25.04 12.2 53.9 66 6 42.8
06:45 1019 30.09 848 25.04 12.6 54.6 64 6.1 42.9
06:50 1019 30.09 848 25.04 12.9 55.2 64 6.3 43.4
06:55 1019 30.09 848 25.04 12.8 55 65 6.4 43.6
07:00 1019 30.09 848 25.04 13 55.4 64 6.5 43.6
07:05 1019 30.09 848 25.04 13 55.5 64 6.5 43.8
07:10 1019 30.09 848 25.04 13.1 55.5 64 6.5 43.8
07:15 1019 30.09 848 25.04 13.2 55.7 64 6.6 43.8
07:20 1019 30.09 848 25.04 13.2 55.8 64 6.6 43.9
07:25 1019 30.09 848 25.04 13.4 56 63 6.6 43.8
07:30 1019 30.09 848 25.04 13.6 56.5 62 6.6 43.9
07:35 1019 30.09 848 25.04 14.1 57.3 62 6.9 44.4
07:40 1019 30.09 848 25.04 14.5 58.1 60 6.9 44.5
07:45 1019 30.09 848 25.04 14.8 58.7 60 7.2 44.9
07:50 1019 30.09 848 25.04 15.1 59.1 60 7.4 45.2
07:55 1019 30.09 848 25.04 15.2 59.3 58 7.1 44.7
08:00 1019 30.09 848 25.04 16 60.7 55 6.9 44.4
08:05 1019 30.09 848 25.04 16.2 61.1 55 7.1 44.8
08:10 1019 30.09 848 25.04 16.8 62.2 54 7.5 45.6
08:15 1019 30.09 848 25.04 17.2 63 52 7.5 45.5
08:20 1019 30.09 848 25.04 17.8 64.1 50 7.4 45.2
08:25 1019 30.09 848 25.04 18.5 65.3 48 7.4 45.4
08:30 1019 30.09 848 25.04 18.5 65.3 47 7.1 44.8
08:35 1019 30.09 848 25.04 18.4 65.2 47 7.1 44.8
08:40 1019 30.09 848 25.04 18.9 66 44 6.4 43.5
08:45 1019 30.09 848 25.04 19.4 66.9 45 7.4 45.2
08:50 1019 30.09 848 25.04 19.2 66.6 44 6.8 44.3
08:55 1019 30.09 848 25.04 19.7 67.4 44 7.1 44.8
09:00 1019 30.09 848 25.04 19.5 67.1 44 6.9 44.5
09:05 1019 30.09 848 25.04 19.6 67.2 42 6.4 43.6
09:10 1019 30.09 848 25.04 20.3 68.6 40 6.6 43.9
09:15 1018 30.06 848 25.04 20.4 68.6 41 7 44.6
09:20 1018 30.06 848 25.04 20.6 69 41 6.9 44.4
09:25 1018 30.06 848 25.04 21 69.8 39 6.8 44.3
09:30 1018 30.06 848 25.04 20.8 69.4 39 6.6 43.9
09:35 1018 30.06 848 25.04 20.6 69.1 40 6.8 44.2
09:40 1018 30.06 848 25.04 20.5 68.9 41 6.9 44.4
09:45 1018 30.06 847 25.01 21.1 69.9 39 6.6 43.9
09:50 1018 30.06 847 25.01 21.5 70.6 37 6.3 43.4
09:55 1018 30.06 847 25.01 22.4 72.3 36 6.6 43.9
10:00 1018 30.06 847 25.01 22.7 72.9 35 6.8 44.2
10:05 1018 30.06 847 25.01 23.1 73.6 35 7.1 44.8
10:10 1018 30.06 847 25.01 23.1 73.5 35 6.8 44.3
10:15 1018 30.06 847 25.01 22.5 72.5 36 7 44.7
10:20 1018 30.06 847 25.01 22.2 72 36 6.6 43.9
10:25 1018 30.06 847 25.01 22.5 72.5 37 7.1 44.8
10:30 1018 30.06 847 25.01 22.5 72.4 36 7 44.6
10:35 1018 30.06 847 25.01 23 73.3 35 6.9 44.3
10:40 1018 30.06 847 25.01 23.2 73.8 36 7.5 45.5
10:45 1018 30.06 847 25.01 23 73.4 37 7.8 46
10:50 1018 30.06 847 25.01 23.1 73.6 35 7.1 44.7
10:55 1017 30.03 847 25.01 23.6 74.4 34 7.1 44.9
11:00 1017 30.03 847 25.01 24 75.2 34 7.4 45.3
11:05 1017 30.03 846 24.98 23.5 74.3 35 7.5 45.5
11:10 1017 30.03 846 24.98 23.4 74.2 36 7.8 46
11:15 1017 30.03 846 24.98 23.6 74.5 35 7.4 45.3
11:20 1017 30.03 846 24.98 23.6 74.5 34 7.2 44.9
11:25 1017 30.03 846 24.98 23.6 74.4 35 7.5 45.5
11:30 1017 30.03 846 24.98 23.5 74.2 34 6.9 44.4
11:35 1017 30.03 846 24.98 23.8 74.8 34 7 44.7
11:40 1017 30.03 846 24.98 24.1 75.4 32 6.8 44.2
11:45 1017 30.03 846 24.98 23.5 74.2 35 7.3 45.1
11:50 1017 30.03 846 24.98 23.3 74 35 7.2 45
11:55 1017 30.03 846 24.98 23.4 74.2 34 6.9 44.4
12:00 1017 30.03 846 24.98 23.6 74.6 33 6.6 44
12:05 1017 30.03 846 24.98 23.1 73.7 35 7.1 44.7
12:10 1017 30.03 846 24.98 23 73.3 35 6.9 44.4
12:15 1017 30.03 846 24.98 23.5 74.2 32 6.2 43.2
12:20 1017 30.03 846 24.98 23.5 74.3 35 7.3 45.1
12:25 1017 30.03 846 24.98 23.6 74.4 33 6.6 43.9
12:30 1016 30 846 24.98 23.6 74.5 34 7.2 44.9
12:35 1016 30 846 24.98 23.6 74.4 34 6.9 44.4
12:40 1016 30 846 24.98 23.6 74.5 36 7.7 45.8
12:45 1016 30 845 24.95 23.7 74.7 35 7.5 45.5
12:50 1016 30 845 24.95 24 75.1 33 6.7 44.1
12:55 1016 30 845 24.95 24.1 75.4 33 7.2 45
13:00 1016 30 845 24.95 24.1 75.3 33 7.1 44.7
13:05 1016 30 845 24.95 23.6 74.5 36 8.1 46.6
13:10 1016 30 845 24.95 22.9 73.3 35 7 44.5
13:15 1016 30 845 24.95 23.6 74.4 33 6.4 43.5
13:20 1016 30 845 24.95 23.8 74.9 33 6.7 44
13:25 1016 30 845 24.95 23.9 75 32 6.4 43.4
13:30 1016 30 845 24.95 24.2 75.6 31 6.4 43.6
13:35 1016 30 845 24.95 24.1 75.3 32 6.5 43.7
13:40 1016 30 845 24.95 24 75.2 31 6.1 43.1
13:45 1016 30 845 24.95 24.6 76.3 30 6.2 43.2
13:50 1016 30 845 24.95 24.7 76.5 29 5.8 42.4
13:55 1016 30 845 24.95 24.8 76.6 30 6.2 43.1
14:00 1016 30 845 24.95 25.1 77.2 29 6.3 43.3
14:05 1016 30 845 24.95 24.7 76.4 30 6.3 43.3
14:10 1016 30 845 24.95 23.8 74.9 31 6 42.8
14:15 1016 30 845 24.95 23.9 74.9 31 6.1 42.9
14:20 1015 29.97 845 24.95 24.3 75.7 31 6.4 43.4
14:25 1015 29.97 845 24.95 24.4 75.8 29 5.5 42
14:30 1015 29.97 845 24.95 24.3 75.7 31 6.2 43.1
14:35 1015 29.97 845 24.95 24.2 75.6 31 6.2 43.1
14:40 1015 29.97 845 24.95 24.1 75.4 31 6.3 43.4
14:45 1015 29.97 845 24.95 23.9 75 30 5.6 42.2
14:50 1015 29.97 844 24.92 24 75.2 30 5.6 42.2
14:55 1015 29.97 844 24.92 24 75.2 30 5.7 42.3
15:00 1015 29.97 844 24.92 23.9 75.1 32 6.5 43.6
15:05 1015 29.97 844 24.92 23.8 74.9 31 5.8 42.5
15:10 1015 29.97 844 24.92 23.9 74.9 32 6.2 43.2
15:15 1015 29.97 844 24.92 24.1 75.4 31 6.3 43.3
15:20 1015 29.97 844 24.92 23.9 75.1 31 6 42.7
15:25 1015 29.97 844 24.92 24.2 75.6 29 5.3 41.6
15:30 1015 29.97 844 24.92 24.3 75.8 30 6.1 42.9
15:35 1015 29.97 844 24.92 24.5 76.2 28 5.1 41.3
15:40 1015 29.97 844 24.92 25.1 77.2 28 5.7 42.3
15:45 1015 29.97 844 24.92 25.3 77.6 28 5.7 42.3
15:50 1015 29.97 844 24.92 25.3 77.5 27 5.2 41.3
15:55 1015 29.97 844 24.92 25.3 77.6 26 5 40.9
16:00 1015 29.97 844 24.92 25.7 78.2 27 5.5 41.8
16:05 1015 29.97 844 24.92 25.9 78.6 26 4.9 40.9
16:10 1015 29.97 844 24.92 26.2 79.1 25 5.1 41.2
16:15 1015 29.97 844 24.92 25.8 78.5 27 5.4 41.8
16:20 1015 29.97 844 24.92 25.5 77.9 27 5.6 42.1
16:25 1015 29.97 844 24.92 25.5 78 27 5.6 42
16:30 1015 29.97 844 24.92 25.8 78.4 28 5.9 42.7
16:35 1014 29.94 844 24.92 25.4 77.8 28 5.8 42.4
16:40 1015 29.97 844 24.92 24.8 76.7 28 5.5 41.9
16:45 1015 29.97 844 24.92 25 76.9 28 5.2 41.4
16:50 1015 29.97 844 24.92 24.8 76.6 31 7 44.5
16:55 1014 29.94 844 24.92 24.7 76.4 29 5.7 42.2
17:00 1014 29.94 844 24.92 24.5 76.1 30 6.1 43.1
17:05 1014 29.94 844 24.92 24.3 75.7 30 5.9 42.6
17:10 1014 29.94 844 24.92 24.1 75.3 30 5.5 41.8
17:15 1014 29.94 844 24.92 24 75.1 31 6.2 43.2
17:20 1014 29.94 844 24.92 23.7 74.7 33 6.7 44
17:25 1014 29.94 844 24.92 23.7 74.7 33 6.6 43.8
17:30 1014 29.94 844 24.92 23.6 74.6 33 6.5 43.8
17:35 1014 29.94 844 24.92 23.5 74.3 33 6.4 43.5
17:40 1014 29.94 844 24.92 23.4 74 34 6.7 44.1
17:45 1014 29.94 844 24.92 23.3 74 33 6.2 43.2
17:50 1014 29.94 844 24.92 23.2 73.8 33 6 42.9
17:55 1014 29.94 844 24.92 23.1 73.5 33 6.2 43.1
18:00 1014 29.94 844 24.92 22.9 73.3 34 6.4 43.5
18:05 1014 29.94 844 24.92 22.8 73 35 6.6 43.8
18:10 1014 29.94 844 24.92 22.5 72.5 35 6.6 44
18:15 1014 29.94 844 24.92 22.3 72.1 36 6.8 44.3
18:20 1014 29.94 844 24.92 22.2 71.9 37 7.2 44.9
18:25 1014 29.94 844 24.92 21.8 71.2 46 9.8 49.7
18:30 1014 29.94 844 24.92 20.7 69.2 51 10.4 50.7
18:35 1014 29.94 844 24.92 20.1 68.1 52 9.9 49.8
18:40 1014 29.94 844 24.92 19.7 67.5 52 9.6 49.3
18:45 1014 29.94 844 24.92 19.6 67.3 50 9 48.3
18:50 1014 29.94 844 24.92 19.5 67.1 48 8.4 47.1
18:55 1014 29.94 844 24.92 19.5 67.1 47 8.2 46.7
19:00 1014 29.94 844 24.92 19.5 67.1 47 7.9 46.3
19:05 1015 29.97 844 24.92 19.5 67.1 45 7.5 45.6
19:10 1015 29.97 844 24.92 19.4 66.8 47 7.7 45.9
19:15 1015 29.97 844 24.92 18.9 66.1 47 7.6 45.7
19:20 1015 29.97 844 24.92 18.7 65.6 48 7.6 45.8
19:25 1015 29.97 844 24.92 18.4 65.1 49 7.6 45.7
19:30 1015 29.97 844 24.92 18.2 64.8 48 7.2 45
19:35 1015 29.97 844 24.92 18.2 64.8 47 7 44.6
19:40 1015 29.97 844 24.92 18.4 65.2 46 6.6 43.9
19:45 1015 29.97 844 24.92 18.6 65.5 47 7.2 44.9
19:50 1015 29.97 844 24.92 17.9 64.2 50 7.4 45.3
19:55 1015 29.97 844 24.92 17.9 64.2 50 7.4 45.3
20:00 1015 29.97 844 24.92 17.8 64 51 7.5 45.5
20:05 1015 29.97 845 24.95 17.4 63.2 52 7.6 45.8
20:10 1015 29.97 845 24.95 17.3 63.1 52 7.3 45.2
20:15 1016 30 845 24.95 17.5 63.5 51 7.4 45.2
20:20 1016 30 845 24.95 17.7 63.8 50 7.1 44.8
20:25 1016 30 845 24.95 18 64.4 48 7 44.7
20:30 1016 30 845 24.95 18.3 65 47 6.8 44.3
20:35 1016 30 845 24.95 18.5 65.3 47 7.1 44.8
20:40 1016 30 845 24.95 18.5 65.4 50 8 46.5
20:45 1016 30 845 24.95 18.5 65.3 50 8.2 46.7
20:50 1016 30 845 24.95 18.4 65.2 52 8.5 47.3
20:55 1016 30 845 24.95 18.3 65 53 8.6 47.5
21:00 1016 30 845 24.95 18.5 65.3 52 8.6 47.5
21:05 1016 30 845 24.95 18.6 65.6 52 8.8 47.8
21:10 1016 30 845 24.95 18.6 65.5 56 9.7 49.5
21:15 1016 30 845 24.95 18.3 65 57 9.9 49.7
21:20 1016 30 845 24.95 18 64.5 60 10.3 50.5
21:25 1016 30 845 24.95 17.7 63.8 61 10.2 50.3
21:30 1016 30 845 24.95 17.2 63 70 11.8 53.3
21:35 1016 30 845 24.95 16.5 61.6 69 10.8 51.4
21:40 1016 30 845 24.95 16.6 61.9 69 11 51.8
21:45 1016 30 845 24.95 16.7 62 66 10.4 50.7
21:50 1016 30 845 24.95 16.9 62.5 64 10.1 50.3
21:55 1016 30 845 24.95 17 62.7 62 9.7 49.5
22:00 1016 30 845 24.95 17.3 63.1 58 9.1 48.3
22:05 1016 30 845 24.95 17.5 63.4 58 9.2 48.5
22:10 1016 30 845 24.95 17.4 63.4 57 8.8 47.9
22:15 1016 30 846 24.98 17.7 63.8 56 8.8 47.8
22:20 1016 30 846 24.98 17.8 64 58 9.5 49.1
22:25 1017 30.03 846 24.98 17.4 63.3 60 9.7 49.5
22:30 1017 30.03 846 24.98 17 62.7 61 9.6 49.3
22:35 1017 30.03 846 24.98 16.8 62.2 67 10.8 51.4
22:40 1017 30.03 846 24.98 16.4 61.6 69 10.8 51.4
22:45 1017 30.03 846 24.98 16.1 60.9 73 11.2 52.1
22:50 1017 30.03 846 24.98 15.9 60.5 71 10.7 51.3
22:55 1017 30.03 846 24.98 15.8 60.5 72 10.8 51.5
23:00 1017 30.03 846 24.98 15.7 60.2 73 11 51.7
23:05 1017 30.03 846 24.98 15.5 59.9 74 11 51.8
23:10 1017 30.03 846 24.98 15.4 59.7 74 10.8 51.5
23:15 1017 30.03 846 24.98 15.4 59.6 74 10.9 51.5
23:20 1017 30.03 846 24.98 15.3 59.5 75 10.9 51.7
23:25 1017 30.03 846 24.98 15.3 59.5 75 10.9 51.7
23:30 1017 30.03 846 24.98 15.3 59.5 74 10.8 51.5
23:35 1017 30.03 846 24.98 15.3 59.5 75 11 51.8
23:40 1017 30.03 846 24.98 15.1 59.2 77 11 51.9
23:45 1017 30.03 846 24.98 15.1 59.1 76 10.9 51.5
23:50 1017 30.03 846 24.98 15 59.1 76 10.9 51.7
23:55 1017 30.03 846 24.98 15.1 59.1 75 10.7 51.2
24:00 1017 30.03 846 24.98 15.2 59.3 74 10.7 51.2